Time;durP1;ratioP1;P1;durP2;ratioP2;P2;SDS_P1;SDS_P2;PMS_P1;PMS_P2;Temp;Humidity;BMP_temperature;BMP_pressure;BME280_temperature;BME280_humidity;BME280_pressure;Samples;Min_cycle;Max_cycle;Signal;HPM_P1;HPM_P2
2021/01/05 00:02:11;;;;;;;21.50;9.87;;;2.80;99.90;;;;;;5091810;28;20067;-71
2021/01/05 00:04:39;;;;;;;20.23;9.40;;;2.80;99.90;;;;;;5110721;28;20062;-71
2021/01/05 00:07:07;;;;;;;20.50;9.30;;;2.80;99.90;;;;;;5099708;28;20040;-72
2021/01/05 00:09:34;;;;;;;19.63;9.30;;;2.80;99.90;;;;;;5091008;28;20054;-72
2021/01/05 00:12:02;;;;;;;19.80;9.20;;;3.00;99.90;;;;;;5104983;28;20131;-72
2021/01/05 00:14:29;;;;;;;19.63;9.73;;;2.90;99.90;;;;;;5095219;28;20044;-72
2021/01/05 00:16:56;;;;;;;20.63;9.33;;;2.80;99.90;;;;;;5095970;28;20059;-71
2021/01/05 00:19:25;;;;;;;19.73;9.20;;;2.90;99.90;;;;;;5100586;28;20040;-73
2021/01/05 00:21:53;;;;;;;16.37;8.30;;;2.80;99.90;;;;;;5092688;28;20499;-72
2021/01/05 00:24:20;;;;;;;18.60;8.90;;;2.90;99.90;;;;;;5110318;28;20083;-75
2021/01/05 00:26:47;;;;;;;17.13;8.67;;;2.90;99.90;;;;;;5105450;28;20051;-74
2021/01/05 00:29:14;;;;;;;17.17;8.17;;;3.00;99.90;;;;;;5096123;28;20504;-74
2021/01/05 00:31:41;;;;;;;18.03;8.73;;;3.10;99.90;;;;;;5102417;28;20076;-72
2021/01/05 00:34:08;;;;;;;20.33;9.53;;;3.00;99.90;;;;;;5104273;28;20123;-72
2021/01/05 00:36:37;;;;;;;20.70;9.70;;;2.90;99.90;;;;;;5097988;28;20447;-71
2021/01/05 00:39:07;;;;;;;18.70;8.27;;;2.90;99.90;;;;;;5103866;28;20047;-72
2021/01/05 00:41:34;;;;;;;17.80;7.93;;;2.90;99.90;;;;;;5103171;28;20203;-72
2021/01/05 00:44:01;;;;;;;17.57;8.53;;;3.10;99.90;;;;;;5106559;28;20047;-71
2021/01/05 00:46:28;;;;;;;16.93;8.17;;;3.00;99.90;;;;;;5104114;28;20044;-71
2021/01/05 00:48:55;;;;;;;19.10;8.90;;;3.20;99.90;;;;;;5103351;28;20044;-72
2021/01/05 00:51:21;;;;;;;20.13;9.53;;;3.20;99.90;;;;;;5099986;28;20079;-72
2021/01/05 00:53:49;;;;;;;19.10;9.17;;;3.20;99.90;;;;;;5101514;28;20435;-72
2021/01/05 00:56:15;;;;;;;20.53;9.47;;;3.10;99.90;;;;;;5099939;28;20047;-72
2021/01/05 00:58:43;;;;;;;18.00;8.90;;;3.10;99.90;;;;;;5104613;28;20043;-72
2021/01/05 01:01:10;;;;;;;17.57;9.17;;;3.00;99.90;;;;;;5103421;28;20043;-75
2021/01/05 01:03:37;;;;;;;20.37;9.17;;;3.10;99.90;;;;;;5093839;28;20055;-72
2021/01/05 01:06:03;;;;;;;17.27;9.20;;;3.00;99.90;;;;;;5099266;28;20054;-71
2021/01/05 01:08:30;;;;;;;19.93;9.07;;;3.00;99.90;;;;;;5095525;28;20534;-72
2021/01/05 01:10:58;;;;;;;19.37;9.97;;;3.00;99.90;;;;;;5093948;28;20117;-74
2021/01/05 01:13:25;;;;;;;21.23;9.70;;;3.00;99.90;;;;;;5103716;28;20043;-73
2021/01/05 01:15:55;;;;;;;18.47;9.07;;;2.90;99.90;;;;;;5099930;28;20503;-72
2021/01/05 01:18:27;;;;;;;22.17;9.37;;;2.90;99.90;;;;;;5096036;28;20051;-72
2021/01/05 01:20:54;;;;;;;19.47;9.00;;;2.90;99.90;;;;;;5102031;28;20052;-71
2021/01/05 01:23:21;;;;;;;20.83;10.20;;;2.80;99.90;;;;;;5098250;28;20315;-71
2021/01/05 01:25:53;;;;;;;25.30;10.13;;;2.80;99.90;;;;;;5097474;28;20048;-73
2021/01/05 01:28:21;;;;;;;20.37;9.47;;;2.90;99.90;;;;;;5101274;28;20782;-72
2021/01/05 01:30:51;;;;;;;18.77;8.83;;;2.90;99.90;;;;;;5096505;28;20419;-72
2021/01/05 01:33:17;;;;;;;22.43;9.70;;;2.90;99.90;;;;;;5099139;28;20052;-69
2021/01/05 01:35:44;;;;;;;15.30;8.00;;;2.80;99.90;;;;;;5097589;28;20511;-69
2021/01/05 01:38:11;;;;;;;18.07;9.07;;;2.90;99.90;;;;;;5102762;28;20048;-69
2021/01/05 01:40:43;;;;;;;18.17;8.63;;;2.80;99.90;;;;;;5101796;28;20504;-69
2021/01/05 01:43:10;;;;;;;21.57;9.83;;;2.70;99.90;;;;;;5100606;28;20063;-69
2021/01/05 01:45:38;;;;;;;21.97;9.10;;;2.70;99.90;;;;;;5102642;28;20039;-69
2021/01/05 01:48:08;;;;;;;23.70;9.80;;;2.70;99.90;;;;;;5100281;28;20052;-69
2021/01/05 01:50:37;;;;;;;19.13;9.00;;;2.70;99.90;;;;;;5101659;28;20044;-69
2021/01/05 01:53:37;;;;;;;17.83;8.67;;;2.70;99.90;;;;;;5099386;28;20257;-69
2021/01/05 01:56:31;;;;;;;19.10;8.67;;;2.70;99.90;;;;;;5101409;28;20047;-69
2021/01/05 01:59:05;;;;;;;18.87;9.07;;;2.70;99.90;;;;;;5100434;28;20047;-69
2021/01/05 02:01:46;;;;;;;20.90;9.83;;;2.60;99.90;;;;;;5100636;28;20420;-69
2021/01/05 02:04:44;;;;;;;22.70;9.27;;;2.60;99.90;;;;;;5102032;28;20082;-69
2021/01/05 02:07:46;;;;;;;22.90;9.10;;;2.60;99.90;;;;;;5101845;28;20483;-69
2021/01/05 02:10:50;;;;;;;21.23;9.30;;;2.60;99.90;;;;;;5080198;28;20548;-69
2021/01/05 02:13:39;;;;;;;20.23;9.43;;;2.80;99.90;;;;;;5099029;28;20051;-70
2021/01/05 02:16:23;;;;;;;20.10;9.67;;;2.70;99.90;;;;;;5100005;28;20043;-69
2021/01/05 02:18:54;;;;;;;17.50;8.10;;;2.70;99.90;;;;;;5101122;28;20059;-69
2021/01/05 02:21:24;;;;;;;22.47;9.47;;;2.80;99.90;;;;;;5100514;28;20056;-69
2021/01/05 02:24:08;;;;;;;19.80;9.47;;;2.80;99.90;;;;;;5102013;28;20044;-69
2021/01/05 02:26:41;;;;;;;19.27;9.07;;;2.80;99.90;;;;;;5095763;28;20058;-69
2021/01/05 02:29:12;;;;;;;19.23;9.20;;;2.80;99.90;;;;;;5101393;28;20052;-69
2021/01/05 02:31:52;;;;;;;19.37;9.37;;;2.90;99.90;;;;;;5106327;28;20050;-69
2021/01/05 02:34:46;;;;;;;20.50;8.97;;;2.90;99.90;;;;;;5098597;28;20507;-69
2021/01/05 02:37:23;;;;;;;13.73;7.63;;;2.90;99.90;;;;;;5101451;28;20059;-69
2021/01/05 02:40:02;;;;;;;17.75;8.05;;;2.90;99.90;;;;;;5095348;28;20055;-69
2021/01/05 02:42:49;;;;;;;19.30;9.10;;;2.90;99.90;;;;;;5101626;28;20097;-69
2021/01/05 02:45:20;;;;;;;15.80;7.68;;;3.00;99.90;;;;;;5102726;28;20074;-69
2021/01/05 02:48:19;;;;;;;16.33;7.77;;;3.00;99.90;;;;;;5108347;28;20046;-69
2021/01/05 02:51:13;;;;;;;14.57;7.20;;;3.00;99.90;;;;;;5097226;28;20047;-69
2021/01/05 02:54:21;;;;;;;16.53;8.30;;;3.00;99.90;;;;;;5107902;28;20040;-69
2021/01/05 02:57:13;;;;;;;14.93;7.25;;;2.90;99.90;;;;;;5104293;28;20522;-69
2021/01/05 03:00:13;;;;;;;16.03;7.10;;;3.00;99.90;;;;;;5106511;28;20051;-69
2021/01/05 03:03:31;;;;;;;14.77;7.97;;;2.90;99.90;;;;;;5108091;28;20051;-69
2021/01/05 03:06:27;;;;;;;16.98;7.57;;;3.00;99.90;;;;;;5108507;28;20117;-69
2021/01/05 03:09:05;;;;;;;15.03;6.83;;;3.00;99.90;;;;;;5069333;28;20066;-69
2021/01/05 03:11:48;;;;;;;14.00;6.97;;;3.10;99.90;;;;;;5108378;28;20054;-70
2021/01/05 03:14:25;;;;;;;12.77;7.23;;;3.00;99.90;;;;;;5109442;28;20065;-69
2021/01/05 03:17:01;;;;;;;15.27;6.73;;;3.00;99.90;;;;;;5108914;28;20056;-69
2021/01/05 03:19:38;;;;;;;15.23;6.85;;;3.00;99.90;;;;;;5110015;28;20108;-70
2021/01/05 03:22:05;;;;;;;;;;;3.00;99.90;;;;;;5110557;28;20556;-69
2021/01/05 03:24:33;;;;;;;14.93;7.00;;;2.90;99.90;;;;;;5111897;28;20384;-70
2021/01/05 03:27:02;;;;;;;14.20;6.27;;;2.90;99.90;;;;;;5110413;28;20048;-69
2021/01/05 03:29:29;;;;;;;15.37;7.40;;;3.10;99.90;;;;;;5111115;28;20043;-70
2021/01/05 03:32:01;;;;;;;12.90;6.37;;;2.90;99.90;;;;;;5110183;28;20051;-69
2021/01/05 03:34:28;;;;;;;14.77;7.20;;;3.00;99.90;;;;;;5111005;28;20046;-69
2021/01/05 03:36:55;;;;;;;12.57;5.73;;;3.00;99.90;;;;;;5110251;28;20058;-70
2021/01/05 03:39:28;;;;;;;12.70;6.73;;;3.00;99.90;;;;;;5103533;28;20051;-69
2021/01/05 03:41:54;;;;;;;12.20;6.37;;;3.00;99.90;;;;;;5105119;28;20594;-69
2021/01/05 03:44:21;;;;;;;13.37;6.37;;;3.00;99.90;;;;;;5108184;28;20043;-69
2021/01/05 03:46:48;;;;;;;11.03;5.73;;;3.00;99.90;;;;;;5105464;28;20523;-69
2021/01/05 03:49:16;;;;;;;11.40;5.70;;;3.10;99.90;;;;;;5098450;28;20048;-69
2021/01/05 03:51:42;;;;;;;11.13;5.90;;;3.20;99.90;;;;;;5106443;28;20423;-69
2021/01/05 03:54:09;;;;;;;11.00;5.73;;;3.20;99.90;;;;;;5105904;28;20044;-69
2021/01/05 03:56:36;;;;;;;10.73;5.10;;;3.20;99.90;;;;;;5107291;28;20048;-69
2021/01/05 03:59:03;;;;;;;10.60;5.13;;;3.10;99.90;;;;;;5110982;28;20039;-69
2021/01/05 04:01:29;;;;;;;12.00;5.63;;;3.20;99.90;;;;;;5108331;28;20093;-69
2021/01/05 04:03:56;;;;;;;10.67;5.40;;;3.30;99.90;;;;;;5110352;28;20048;-69
2021/01/05 04:06:28;;;;;;;12.27;5.43;;;3.20;99.90;;;;;;5110553;28;20066;-69
2021/01/05 04:08:55;;;;;;;10.93;5.07;;;3.20;99.90;;;;;;5108304;28;20131;-69
2021/01/05 04:11:21;;;;;;;11.43;5.50;;;3.20;99.90;;;;;;5108289;28;20051;-69
2021/01/05 04:13:48;;;;;;;10.93;5.23;;;3.20;99.90;;;;;;5110192;28;20055;-69
2021/01/05 04:16:15;;;;;;;9.63;5.40;;;3.20;99.90;;;;;;5110896;28;20461;-69
2021/01/05 04:18:42;;;;;;;12.77;5.60;;;3.30;99.90;;;;;;5110791;28;20043;-69
2021/01/05 04:21:13;;;;;;;10.47;5.00;;;3.20;99.90;;;;;;5109798;28;20040;-69
2021/01/05 04:23:41;;;;;;;12.83;5.63;;;3.20;99.90;;;;;;5110944;28;20074;-69
2021/01/05 04:26:08;;;;;;;12.73;5.87;;;3.20;99.90;;;;;;5109643;28;20108;-69
2021/01/05 04:28:41;;;;;;;11.57;5.10;;;3.20;99.90;;;;;;5110941;28;20048;-70
2021/01/05 04:31:08;;;;;;;9.70;4.90;;;3.20;99.90;;;;;;5107282;28;20051;-69
2021/01/05 04:33:35;;;;;;;10.53;5.23;;;3.20;99.90;;;;;;5110762;28;20051;-69
2021/01/05 04:36:01;;;;;;;9.50;4.60;;;3.30;99.90;;;;;;5110683;28;20445;-69
2021/01/05 04:38:28;;;;;;;9.00;4.97;;;3.40;99.90;;;;;;5110026;28;20052;-69
2021/01/05 04:40:56;;;;;;;9.03;4.80;;;3.40;99.90;;;;;;5109513;28;20050;-69
2021/01/05 04:43:45;;;;;;;9.27;4.47;;;3.30;99.90;;;;;;5098824;28;20044;-69
2021/01/05 04:46:34;;;;;;;12.23;4.43;;;3.30;99.90;;;;;;5099298;28;20503;-69
2021/01/05 04:49:15;;;;;;;14.07;5.30;;;3.20;99.90;;;;;;5099694;28;20052;-69
2021/01/05 04:51:46;;;;;;;9.47;4.80;;;3.30;99.90;;;;;;5108798;28;20051;-69
2021/01/05 04:54:19;;;;;;;10.73;4.60;;;3.30;99.90;;;;;;5109902;28;20044;-69
2021/01/05 04:56:57;;;;;;;8.20;4.17;;;3.30;99.90;;;;;;5110500;28;20054;-69
2021/01/05 04:59:30;;;;;;;8.83;4.10;;;3.40;99.90;;;;;;5101344;28;20117;-69
2021/01/05 05:01:57;;;;;;;9.40;4.37;;;3.40;99.90;;;;;;5095417;28;20487;-69
2021/01/05 05:04:33;;;;;;;9.03;4.50;;;3.50;99.90;;;;;;5109389;28;20062;-69
2021/01/05 05:07:11;;;;;;;9.37;4.80;;;3.40;99.90;;;;;;5109265;28;20055;-69
2021/01/05 05:09:51;;;;;;;12.07;5.73;;;3.20;99.90;;;;;;5109969;28;20520;-69
2021/01/05 05:12:43;;;;;;;7.50;3.93;;;3.30;99.90;;;;;;5108767;28;20101;-69
2021/01/05 05:15:36;;;;;;;10.87;4.57;;;3.40;99.90;;;;;;5109518;28;20051;-69
2021/01/05 05:18:32;;;;;;;9.53;4.67;;;3.20;99.90;;;;;;5108920;28;20433;-69
2021/01/05 05:21:21;;;;;;;9.50;4.43;;;3.30;99.90;;;;;;5107349;28;20052;-69
2021/01/05 05:23:57;;;;;;;10.17;4.67;;;3.30;99.90;;;;;;5108495;28;20044;-69
2021/01/05 05:26:28;;;;;;;9.15;4.43;;;3.30;99.90;;;;;;5110174;28;20059;-69
2021/01/05 05:28:59;;;;;;;9.23;4.20;;;3.20;99.90;;;;;;5109669;28;20058;-69
2021/01/05 05:31:28;;;;;;;9.30;4.57;;;3.20;99.90;;;;;;5108787;28;20043;-69
2021/01/05 05:34:01;;;;;;;8.33;3.90;;;3.20;99.90;;;;;;5110333;28;20047;-69
2021/01/05 05:37:01;;;;;;;10.00;4.73;;;3.20;99.90;;;;;;5108984;28;20051;-69
2021/01/05 05:39:44;;;;;;;8.20;4.30;;;3.20;99.90;;;;;;5109871;28;20502;-69
2021/01/05 05:42:31;;;;;;;8.70;4.30;;;3.30;99.90;;;;;;5108447;28;20054;-69
2021/01/05 05:45:03;;;;;;;10.38;4.43;;;3.30;99.90;;;;;;5109909;28;20415;-69
2021/01/05 05:47:36;;;;;;;10.33;4.43;;;3.20;99.90;;;;;;5108739;28;20442;-69
2021/01/05 05:50:08;;;;;;;8.50;4.10;;;3.20;99.90;;;;;;5110003;28;20411;-69
2021/01/05 05:52:49;;;;;;;8.80;4.27;;;3.10;99.90;;;;;;5108941;28;20056;-69
2021/01/05 05:55:23;;;;;;;9.73;4.37;;;3.00;99.90;;;;;;5109510;28;20183;-69
2021/01/05 05:57:52;;;;;;;7.67;3.80;;;3.10;99.90;;;;;;5109593;28;20108;-69
2021/01/05 06:00:35;;;;;;;7.47;3.53;;;3.30;99.90;;;;;;5108167;28;20171;-69
2021/01/05 06:03:02;;;;;;;7.93;3.43;;;3.20;99.90;;;;;;5109079;28;20411;-69
2021/01/05 06:05:31;;;;;;;8.20;3.57;;;3.20;99.90;;;;;;5108431;28;20059;-69
2021/01/05 06:07:58;;;;;;;6.83;3.20;;;3.00;99.90;;;;;;5109078;28;20055;-69
2021/01/05 06:10:25;;;;;;;8.03;3.80;;;3.00;99.90;;;;;;5108187;28;20051;-69
2021/01/05 06:12:54;;;;;;;8.53;3.67;;;3.00;99.90;;;;;;5109277;28;20044;-69
2021/01/05 06:15:20;;;;;;;7.43;3.50;;;2.90;99.90;;;;;;5110502;28;20601;-69
2021/01/05 06:17:49;;;;;;;6.53;3.33;;;3.00;99.90;;;;;;5112724;28;20044;-69
2021/01/05 06:20:16;;;;;;;8.60;3.97;;;3.00;99.90;;;;;;5113333;28;20455;-69
2021/01/05 06:22:43;;;;;;;8.73;3.40;;;3.00;99.90;;;;;;5111787;28;20054;-69
2021/01/05 06:25:11;;;;;;;7.97;3.80;;;3.20;99.90;;;;;;5113711;28;20552;-69
2021/01/05 06:27:38;;;;;;;9.07;3.40;;;3.10;99.90;;;;;;5113262;28;20055;-69
2021/01/05 06:30:07;;;;;;;7.20;3.60;;;3.20;99.90;;;;;;5112482;28;20052;-69
2021/01/05 06:32:34;;;;;;;8.27;3.60;;;3.10;99.90;;;;;;5112694;28;20103;-69
2021/01/05 06:35:02;;;;;;;8.20;3.50;;;3.10;99.90;;;;;;5112258;28;20054;-69
2021/01/05 06:37:28;;;;;;;8.33;3.67;;;3.20;99.90;;;;;;5113178;28;20406;-69
2021/01/05 06:39:55;;;;;;;8.20;4.10;;;3.10;99.90;;;;;;5112705;28;20499;-69
2021/01/05 06:42:22;;;;;;;8.70;3.80;;;3.10;99.90;;;;;;5111840;28;20066;-69
2021/01/05 06:44:48;;;;;;;9.10;3.53;;;3.10;99.90;;;;;;5112884;28;20043;-69
2021/01/05 06:47:15;;;;;;;8.20;3.97;;;3.10;99.90;;;;;;5111982;28;20070;-69
2021/01/05 06:49:42;;;;;;;9.03;4.47;;;3.10;99.90;;;;;;5113032;28;20051;-69
2021/01/05 06:52:10;;;;;;;7.83;3.50;;;3.10;99.90;;;;;;5112112;28;20052;-69
2021/01/05 06:54:36;;;;;;;8.13;3.87;;;3.00;99.90;;;;;;5113773;28;20047;-69
2021/01/05 06:57:04;;;;;;;8.90;4.13;;;3.00;99.90;;;;;;5112913;28;20052;-70
2021/01/05 06:59:31;;;;;;;8.17;3.83;;;3.00;99.90;;;;;;5111777;28;20419;-69
2021/01/05 07:02:00;;;;;;;9.00;3.80;;;3.00;99.90;;;;;;5107754;28;20048;-69
2021/01/05 07:04:27;;;;;;;8.27;4.00;;;3.00;99.90;;;;;;5112076;28;20047;-69
2021/01/05 07:06:55;;;;;;;7.63;3.47;;;2.90;99.90;;;;;;5112270;28;20431;-69
2021/01/05 07:09:23;;;;;;;9.83;4.60;;;3.00;99.90;;;;;;5113924;28;20059;-69
2021/01/05 07:11:51;;;;;;;7.60;3.50;;;2.90;99.90;;;;;;5110968;28;20043;-69
2021/01/05 07:14:20;;;;;;;8.27;4.10;;;3.10;99.90;;;;;;5112600;28;20092;-69
2021/01/05 07:16:47;;;;;;;8.87;4.20;;;3.10;99.90;;;;;;5111397;28;20450;-69
2021/01/05 07:19:14;;;;;;;7.50;3.33;;;3.20;99.90;;;;;;5112569;28;20051;-69
2021/01/05 07:21:40;;;;;;;8.37;4.10;;;3.30;99.90;;;;;;5111545;28;20068;-69
2021/01/05 07:24:08;;;;;;;12.10;4.30;;;3.20;99.90;;;;;;5111677;28;20044;-69
2021/01/05 07:26:39;;;;;;;7.83;3.50;;;3.20;99.90;;;;;;5111570;28;20048;-69
2021/01/05 07:29:06;;;;;;;7.77;4.13;;;3.10;99.90;;;;;;5110071;28;20188;-69
2021/01/05 07:31:33;;;;;;;10.67;4.67;;;3.10;99.90;;;;;;5111744;28;20095;-69
2021/01/05 07:34:00;;;;;;;7.43;3.50;;;3.10;99.90;;;;;;5111842;28;20048;-69
2021/01/05 07:36:29;;;;;;;8.23;3.87;;;3.10;99.90;;;;;;5111549;28;20502;-69
2021/01/05 07:38:56;;;;;;;8.73;3.73;;;3.10;99.90;;;;;;5112176;28;20048;-70
2021/01/05 07:41:23;;;;;;;9.03;4.37;;;3.10;99.90;;;;;;5110824;28;20059;-69
2021/01/05 07:43:51;;;;;;;7.07;3.70;;;3.00;99.90;;;;;;5112106;28;20059;-69
2021/01/05 07:46:18;;;;;;;8.33;4.20;;;3.20;99.90;;;;;;5111255;28;20503;-69
2021/01/05 07:48:45;;;;;;;8.47;4.07;;;3.10;99.90;;;;;;5112388;28;20117;-69
2021/01/05 07:51:12;;;;;;;10.77;4.57;;;3.40;99.90;;;;;;5111291;28;20407;-70
2021/01/05 07:53:41;;;;;;;9.63;4.63;;;3.30;99.90;;;;;;5111188;28;20051;-69
2021/01/05 07:56:08;;;;;;;8.37;3.73;;;3.30;99.90;;;;;;5111358;28;20052;-69
2021/01/05 07:58:34;;;;;;;7.67;4.00;;;3.40;99.90;;;;;;5101292;28;20067;-70
2021/01/05 08:01:02;;;;;;;8.67;4.20;;;3.10;99.90;;;;;;5098367;28;20052;-69
2021/01/05 08:03:29;;;;;;;8.60;4.00;;;3.20;99.90;;;;;;5101439;28;20058;-69
2021/01/05 08:05:56;;;;;;;7.97;3.77;;;3.20;99.90;;;;;;5099739;28;20083;-69
2021/01/05 08:08:22;;;;;;;8.97;4.27;;;3.20;99.90;;;;;;5101531;28;20518;-70
2021/01/05 08:10:49;;;;;;;8.87;4.20;;;3.20;99.90;;;;;;5100482;28;20051;-69
2021/01/05 08:13:16;;;;;;;9.00;3.73;;;3.30;99.90;;;;;;5100084;28;20113;-69
2021/01/05 08:15:42;;;;;;;9.50;3.90;;;3.30;99.90;;;;;;5099910;28;20075;-69
2021/01/05 08:18:10;;;;;;;9.50;4.03;;;3.40;99.90;;;;;;5101234;28;20052;-69
2021/01/05 08:20:37;;;;;;;9.47;4.30;;;3.30;99.90;;;;;;5101476;28;20055;-69
2021/01/05 08:23:05;;;;;;;7.37;3.70;;;3.30;99.90;;;;;;5099923;28;20048;-69
2021/01/05 08:25:32;;;;;;;7.73;3.43;;;3.50;99.90;;;;;;5096952;28;20775;-69
2021/01/05 08:28:00;;;;;;;7.63;3.53;;;3.50;99.90;;;;;;5095095;28;20075;-70
2021/01/05 08:30:28;;;;;;;10.53;4.30;;;3.50;99.90;;;;;;5111300;28;20043;-70
2021/01/05 08:32:59;;;;;;;11.37;4.43;;;3.40;99.90;;;;;;5111523;28;20052;-69
2021/01/05 08:35:28;;;;;;;10.80;4.37;;;3.40;99.90;;;;;;5108712;28;20043;-69
2021/01/05 08:37:55;;;;;;;11.43;4.07;;;3.50;99.90;;;;;;5110308;28;20047;-69
2021/01/05 08:40:25;;;;;;;8.30;4.60;;;3.40;99.90;;;;;;5109255;28;20059;-69
2021/01/05 08:42:51;;;;;;;10.23;4.60;;;3.50;99.90;;;;;;5111218;28;20055;-69
2021/01/05 08:45:18;;;;;;;7.80;4.07;;;3.60;99.90;;;;;;5110765;28;20052;-69
2021/01/05 08:47:46;;;;;;;9.47;4.37;;;3.50;99.90;;;;;;5110298;28;20051;-69
2021/01/05 08:50:17;;;;;;;9.70;4.60;;;3.50;99.90;;;;;;5110526;28;20043;-69
2021/01/05 08:52:45;;;;;;;11.27;4.93;;;3.60;99.90;;;;;;5110211;28;20479;-69
2021/01/05 08:55:13;;;;;;;10.57;4.53;;;3.60;99.90;;;;;;5110780;28;20055;-69
2021/01/05 08:57:39;;;;;;;8.30;4.30;;;3.70;99.90;;;;;;5109923;28;20052;-69
2021/01/05 09:00:08;;;;;;;9.53;4.40;;;3.60;99.90;;;;;;5109840;28;20051;-69
2021/01/05 09:02:35;;;;;;;10.40;4.87;;;3.60;99.90;;;;;;5110739;28;20063;-69
2021/01/05 09:05:02;;;;;;;7.83;4.13;;;3.70;99.90;;;;;;5109943;28;20056;-70
2021/01/05 09:07:28;;;;;;;10.23;4.43;;;3.80;99.90;;;;;;5110341;28;20044;-69
2021/01/05 09:09:56;;;;;;;8.70;4.10;;;3.80;99.90;;;;;;5109477;28;20462;-69
2021/01/05 09:12:23;;;;;;;9.40;4.13;;;3.90;99.90;;;;;;5109669;28;20059;-69
2021/01/05 09:14:49;;;;;;;8.63;4.10;;;4.00;99.90;;;;;;5109483;28;20052;-70
2021/01/05 09:17:17;;;;;;;9.13;4.50;;;4.00;99.90;;;;;;5109751;28;20051;-69
2021/01/05 09:19:44;;;;;;;10.93;5.30;;;4.10;99.90;;;;;;5110141;28;20495;-69
2021/01/05 09:22:11;;;;;;;8.70;4.57;;;4.20;99.90;;;;;;5108693;28;20051;-70
2021/01/05 09:24:38;;;;;;;10.97;4.43;;;4.20;99.90;;;;;;5110164;28;20047;-69
2021/01/05 09:27:05;;;;;;;9.90;4.30;;;4.30;99.90;;;;;;5108456;28;20052;-70
2021/01/05 09:29:32;;;;;;;10.00;5.03;;;4.50;99.90;;;;;;5109545;28;20514;-72
2021/01/05 09:31:59;;;;;;;9.60;4.47;;;4.50;99.90;;;;;;5103082;28;20052;-72
2021/01/05 09:34:25;;;;;;;10.93;4.60;;;4.40;99.90;;;;;;5108574;28;20063;-72
2021/01/05 09:36:53;;;;;;;15.00;5.10;;;4.50;99.90;;;;;;5104323;28;20044;-70
2021/01/05 09:39:22;;;;;;;10.10;4.67;;;4.60;99.90;;;;;;5096999;28;20662;-71
2021/01/05 09:41:51;;;;;;;9.80;4.53;;;4.60;99.90;;;;;;5096752;28;20044;-70
2021/01/05 09:44:19;;;;;;;11.07;5.00;;;4.60;99.90;;;;;;5105699;28;20048;-70
2021/01/05 09:46:50;;;;;;;10.93;4.77;;;4.60;99.90;;;;;;5092506;28;20052;-69
2021/01/05 09:49:18;;;;;;;11.70;5.67;;;4.70;99.90;;;;;;5101312;28;20144;-70
2021/01/05 09:51:44;;;;;;;11.17;5.00;;;4.70;99.90;;;;;;5099271;28;20048;-71
2021/01/05 09:54:12;;;;;;;9.70;4.60;;;4.80;99.90;;;;;;5093958;28;20482;-70
2021/01/05 09:56:38;;;;;;;8.80;4.30;;;4.80;99.90;;;;;;5103520;28;20483;-71
2021/01/05 09:59:05;;;;;;;12.13;5.80;;;5.00;99.90;;;;;;5102351;28;20047;-70
2021/01/05 10:01:34;;;;;;;11.50;5.50;;;4.90;99.90;;;;;;5098223;28;20047;-72
2021/01/05 10:04:01;;;;;;;12.03;5.20;;;5.00;99.90;;;;;;5108312;28;20047;-70
2021/01/05 10:06:29;;;;;;;11.07;5.60;;;5.10;99.90;;;;;;5107942;28;20419;-69
2021/01/05 10:08:56;;;;;;;10.67;5.00;;;5.20;99.90;;;;;;5092998;28;20051;-70
2021/01/05 10:11:23;;;;;;;11.63;5.00;;;5.20;99.90;;;;;;5099844;28;20048;-70
2021/01/05 10:13:49;;;;;;;10.90;5.38;;;5.10;99.90;;;;;;5101895;28;20104;-70
2021/01/05 10:16:19;;;;;;;11.93;5.63;;;5.40;99.90;;;;;;5091658;28;20063;-70
2021/01/05 10:18:46;;;;;;;10.35;5.05;;;6.10;99.90;;;;;;5109080;28;20063;-73
2021/01/05 10:21:13;;;;;;;9.98;4.60;;;6.80;99.90;;;;;;5100357;28;20051;-73
2021/01/05 10:23:40;;;;;;;10.27;5.10;;;7.40;99.90;;;;;;5099737;28;20055;-73
2021/01/05 10:26:08;;;;;;;11.50;5.35;;;8.00;99.90;;;;;;5108913;28;20055;-72
2021/01/05 10:28:36;;;;;;;10.25;4.90;;;8.60;99.90;;;;;;5105394;28;20055;-71
2021/01/05 10:31:02;;;;;;;10.85;5.43;;;9.10;99.90;;;;;;5094551;28;20891;-70
2021/01/05 10:33:29;;;;;;;9.63;5.57;;;9.90;99.90;;;;;;5107564;28;20047;-70
2021/01/05 10:35:57;;;;;;;10.27;4.97;;;10.90;99.90;;;;;;5095554;28;20531;-71
2021/01/05 10:38:23;;;;;;;10.73;5.20;;;12.00;99.90;;;;;;5105359;28;20063;-71
2021/01/05 10:40:52;;;;;;;8.73;4.85;;;12.40;99.90;;;;;;5091902;28;20051;-71
2021/01/05 10:43:18;;;;;;;10.38;5.75;;;11.40;99.90;;;;;;5101011;28;20075;-71
2021/01/05 10:45:45;;;;;;;11.93;4.90;;;10.70;99.90;;;;;;5100400;28;20178;-70
2021/01/05 10:48:17;;;;;;;12.05;5.35;;;9.80;99.90;;;;;;5093105;28;20052;-71
2021/01/05 10:50:47;;;;;;;9.48;4.90;;;9.30;99.90;;;;;;5104878;28;20048;-70
2021/01/05 10:53:18;;;;;;;8.98;4.78;;;8.90;99.90;;;;;;5096034;28;20059;-70
2021/01/05 10:55:51;;;;;;;9.48;4.82;;;8.70;99.90;;;;;;5097511;28;20056;-70
2021/01/05 10:58:17;;;;;;;11.35;5.53;;;8.70;99.90;;;;;;5105073;28;20514;-72
2021/01/05 11:00:44;;;;;;;10.10;5.35;;;9.40;99.90;;;;;;5092080;28;20502;-71
2021/01/05 11:03:11;;;;;;;9.13;4.65;;;9.20;99.90;;;;;;5103463;28;20048;-71
2021/01/05 11:05:37;;;;;;;11.15;5.55;;;8.90;99.90;;;;;;5093176;28;20052;-72
2021/01/05 11:08:04;;;;;;;23.63;7.25;;;8.50;99.90;;;;;;5105028;28;20491;-73
2021/01/05 11:10:32;;;;;;;10.02;5.50;;;8.30;99.90;;;;;;5112640;28;20090;-72
2021/01/05 11:12:59;;;;;;;10.32;5.10;;;8.20;99.90;;;;;;5107070;28;20499;-72
2021/01/05 11:15:26;;;;;;;11.52;5.15;;;8.00;99.90;;;;;;5090980;28;20056;-76
2021/01/05 11:17:53;;;;;;;10.63;5.18;;;8.10;99.90;;;;;;5092167;28;20060;-72
2021/01/05 11:20:20;;;;;;;10.43;5.45;;;8.10;99.90;;;;;;5090411;28;20408;-72
2021/01/05 11:22:50;;;;;;;10.55;5.25;;;8.00;99.90;;;;;;5108609;28;20056;-71
2021/01/05 11:25:19;;;;;;;10.25;5.57;;;8.20;99.90;;;;;;5092422;28;20082;-74
2021/01/05 11:27:47;;;;;;;9.77;5.43;;;8.10;99.90;;;;;;5105301;28;20701;-74
2021/01/05 11:30:21;;;;;;;11.50;5.97;;;8.00;99.90;;;;;;5099209;28;20048;-71
2021/01/05 11:32:51;;;;;;;12.30;5.55;;;8.20;99.90;;;;;;5107475;28;20051;-73
2021/01/05 11:35:19;;;;;;;10.75;5.30;;;8.20;99.90;;;;;;5114646;28;20052;-72
2021/01/05 11:37:46;;;;;;;13.45;5.43;;;8.80;99.90;;;;;;5114016;28;20077;-74
2021/01/05 11:40:14;;;;;;;11.43;6.15;;;8.60;99.90;;;;;;5118883;28;20068;-74
2021/01/05 11:42:41;;;;;;;10.63;5.75;;;8.80;99.90;;;;;;5124028;28;20066;-73
2021/01/05 11:45:11;;;;;;;10.40;5.75;;;9.90;99.90;;;;;;5129738;28;20044;-73
2021/01/05 11:47:38;;;;;;;12.07;6.55;;;9.80;99.90;;;;;;5131275;28;20061;-73
2021/01/05 11:50:07;;;;;;;15.13;7.53;;;10.70;99.90;;;;;;5131552;28;20040;-75
2021/01/05 11:52:34;;;;;;;13.30;7.28;;;11.60;99.90;;;;;;5127217;28;20112;-73
2021/01/05 11:55:05;;;;;;;10.10;5.93;;;12.30;99.90;;;;;;5120765;28;20101;-72
2021/01/05 11:57:32;;;;;;;13.10;6.85;;;12.40;99.90;;;;;;5111314;28;20058;-73
2021/01/05 11:59:59;;;;;;;11.98;6.53;;;11.90;99.90;;;;;;5112316;28;20081;-75
2021/01/05 12:02:26;;;;;;;13.15;7.32;;;11.70;99.90;;;;;;5108196;28;20043;-74
2021/01/05 12:04:53;;;;;;;14.30;7.93;;;11.00;99.90;;;;;;5112749;28;20100;-74
2021/01/05 12:07:23;;;;;;;14.20;7.40;;;10.40;99.90;;;;;;5113639;28;20047;-74
2021/01/05 12:09:54;;;;;;;14.90;6.90;;;9.90;99.90;;;;;;5113103;28;20108;-73
2021/01/05 12:12:21;;;;;;;13.45;7.07;;;9.50;99.90;;;;;;5111559;28;20062;-73
2021/01/05 12:14:48;;;;;;;14.00;7.53;;;9.00;99.90;;;;;;5110257;28;20054;-73
2021/01/05 12:17:15;;;;;;;14.18;7.63;;;8.60;99.90;;;;;;5111531;28;20059;-73
2021/01/05 12:19:43;;;;;;;17.95;7.50;;;8.20;99.90;;;;;;5111544;28;20051;-73
2021/01/05 12:22:11;;;;;;;14.07;7.03;;;7.80;99.90;;;;;;5110563;28;20499;-73
2021/01/05 12:24:39;;;;;;;11.70;6.30;;;7.80;99.90;;;;;;5111487;28;20108;-73
2021/01/05 12:27:08;;;;;;;15.93;7.80;;;7.60;99.90;;;;;;5109948;28;20047;-75
2021/01/05 12:29:36;;;;;;;14.98;7.25;;;7.50;99.90;;;;;;5111130;28;20044;-74
2021/01/05 12:32:06;;;;;;;18.65;6.68;;;7.20;99.90;;;;;;5111158;28;20407;-73
2021/01/05 12:34:35;;;;;;;14.48;7.47;;;7.10;99.90;;;;;;5110064;28;20055;-73
2021/01/05 12:37:05;;;;;;;14.60;6.90;;;6.90;99.90;;;;;;5109934;28;20069;-75
2021/01/05 12:39:33;;;;;;;14.65;7.53;;;7.20;99.90;;;;;;5104225;28;20055;-75
2021/01/05 12:42:06;;;;;;;17.10;7.97;;;7.10;99.90;;;;;;5097498;28;20051;-73
2021/01/05 12:44:32;;;;;;;16.48;7.78;;;7.00;99.90;;;;;;5107166;28;20043;-73
2021/01/05 12:47:00;;;;;;;17.67;8.02;;;7.00;99.90;;;;;;5105363;28;20449;-74
2021/01/05 12:49:27;;;;;;;15.70;7.50;;;6.80;99.90;;;;;;5104875;28;20039;-73
2021/01/05 12:51:54;;;;;;;16.83;7.38;;;6.70;99.90;;;;;;5104977;28;20046;-75
2021/01/05 12:54:23;;;;;;;16.33;7.72;;;6.50;99.90;;;;;;5103843;28;20138;-73
2021/01/05 12:56:50;;;;;;;14.63;7.93;;;6.30;99.90;;;;;;5099318;28;20056;-74
2021/01/05 12:59:18;;;;;;;16.80;7.78;;;6.20;99.90;;;;;;5101492;28;20523;-74
2021/01/05 13:01:44;;;;;;;21.00;9.20;;;6.10;99.90;;;;;;5099218;28;20101;-73
2021/01/05 13:04:11;;;;;;;15.48;6.75;;;5.80;99.90;;;;;;5106836;28;20048;-73
2021/01/05 13:06:39;;;;;;;17.37;8.00;;;5.70;99.90;;;;;;5107058;28;20051;-74
2021/01/05 13:09:07;;;;;;;15.67;7.77;;;5.60;99.90;;;;;;5103192;28;20097;-73